createdAt,value
2018-09-06T00:00:04.635Z,10.43
2018-09-06T00:02:34.064Z,11.10
2018-09-06T00:05:02.996Z,11.40
2018-09-06T00:07:31.763Z,11.27
2018-09-06T00:10:00.553Z,11.47
2018-09-06T00:12:29.568Z,11.57
2018-09-06T00:14:58.379Z,12.17
2018-09-06T00:17:27.812Z,12.00
2018-09-06T00:19:56.744Z,13.00
2018-09-06T00:22:25.572Z,12.13
2018-09-06T00:24:54.710Z,12.37
2018-09-06T00:27:23.548Z,12.43
2018-09-06T00:29:52.231Z,12.63
2018-09-06T00:32:21.265Z,13.17
2018-09-06T00:34:50.011Z,12.20
2018-09-06T00:37:18.707Z,14.03
2018-09-06T00:39:47.738Z,12.73
2018-09-06T00:42:16.696Z,12.47
2018-09-06T00:44:45.990Z,13.03
2018-09-06T00:47:15.109Z,13.33
2018-09-06T00:49:44.028Z,11.60
2018-09-06T00:52:13.369Z,13.50
2018-09-06T00:54:42.500Z,12.80
2018-09-06T00:57:11.348Z,13.83
2018-09-06T00:59:40.190Z,12.93
2018-09-06T01:02:09.343Z,13.63
2018-09-06T01:04:38.023Z,13.47
2018-09-06T01:07:06.803Z,14.33
2018-09-06T01:09:35.848Z,16.57
2018-09-06T01:12:04.815Z,14.60
2018-09-06T01:14:33.879Z,15.63
2018-09-06T01:17:02.985Z,16.70
2018-09-06T01:19:31.961Z,15.40
2018-09-06T01:22:00.825Z,15.97
2018-09-06T01:24:30.019Z,16.13
2018-09-06T01:26:59.321Z,15.37
2018-09-06T01:29:28.101Z,16.43
2018-09-06T01:31:56.926Z,14.90
2018-09-06T01:34:25.784Z,15.67
2018-09-06T01:36:54.606Z,16.17
2018-09-06T01:39:23.617Z,16.43
2018-09-06T01:41:52.552Z,17.00
2018-09-06T01:44:21.713Z,16.50
2018-09-06T01:46:50.754Z,20.03
2018-09-06T01:49:19.835Z,18.23
2018-09-06T01:51:48.642Z,18.13
2018-09-06T01:54:18.033Z,18.27
2018-09-06T01:56:47.123Z,17.27
2018-09-06T01:59:16.227Z,18.57
2018-09-06T02:01:45.107Z,17.43
2018-09-06T02:04:13.918Z,19.03
2018-09-06T02:06:42.716Z,18.40
2018-09-06T02:09:11.559Z,18.27
2018-09-06T02:11:41.338Z,19.87
2018-09-06T02:14:10.740Z,18.23
2018-09-06T02:16:39.892Z,17.57
2018-09-06T02:19:09.050Z,18.40
2018-09-06T02:21:38.316Z,18.00
2018-09-06T02:24:07.136Z,18.50
2018-09-06T02:26:36.127Z,18.57
2018-09-06T02:29:05.392Z,19.07
2018-09-06T02:31:34.355Z,20.23
2018-09-06T02:34:03.169Z,19.37
2018-09-06T02:36:32.274Z,19.87
2018-09-06T02:39:01.051Z,19.90
2018-09-06T02:41:30.347Z,19.43
2018-09-06T02:43:59.278Z,20.63
2018-09-06T02:46:28.396Z,19.33
2018-09-06T02:48:57.635Z,19.23
2018-09-06T02:51:26.816Z,19.20
2018-09-06T02:53:55.637Z,18.60
2018-09-06T02:56:24.418Z,19.80
2018-09-06T02:58:53.412Z,18.77
2018-09-06T03:01:22.309Z,19.70
2018-09-06T03:03:51.078Z,19.47
2018-09-06T03:06:20.106Z,18.60
2018-09-06T03:08:48.899Z,18.03
2018-09-06T03:11:20.230Z,18.60
2018-09-06T03:13:49.143Z,18.27
2018-09-06T03:16:18.366Z,17.53
2018-09-06T03:18:47.844Z,18.80
2018-09-06T03:21:16.825Z,18.83
2018-09-06T03:23:45.811Z,19.57
2018-09-06T03:26:17.281Z,18.23
2018-09-06T03:28:47.714Z,18.10
2018-09-06T03:31:17.150Z,19.30
2018-09-06T03:33:46.237Z,20.57
2018-09-06T03:36:15.318Z,17.63
2018-09-06T03:38:44.652Z,18.93
2018-09-06T03:41:13.482Z,18.43
2018-09-06T03:43:42.266Z,18.13
2018-09-06T03:46:11.818Z,17.30
2018-09-06T03:48:41.054Z,17.03
2018-09-06T03:51:09.964Z,18.17
2018-09-06T03:53:39.294Z,17.33
2018-09-06T03:56:08.570Z,17.57
2018-09-06T03:58:37.330Z,16.37
2018-09-06T04:01:06.490Z,18.57
2018-09-06T04:03:35.194Z,17.77
2018-09-06T04:06:04.012Z,16.27
2018-09-06T04:08:32.774Z,17.43
2018-09-06T04:11:01.699Z,16.57
2018-09-06T04:13:30.600Z,17.83
2018-09-06T04:15:59.715Z,15.90
2018-09-06T04:18:28.710Z,17.53
2018-09-06T04:20:57.618Z,18.03
2018-09-06T04:23:27.004Z,16.60
2018-09-06T04:25:56.068Z,18.77
2018-09-06T04:28:25.082Z,17.60
2018-09-06T04:30:54.383Z,16.70
2018-09-06T04:33:23.095Z,16.93
2018-09-06T04:35:51.747Z,17.07
2018-09-06T04:38:21.242Z,17.70
2018-09-06T04:40:50.256Z,16.77
2018-09-06T04:43:19.260Z,16.87
2018-09-06T04:45:48.483Z,16.53
2018-09-06T04:48:17.727Z,16.07
2018-09-06T04:50:46.927Z,17.53
2018-09-06T04:53:16.071Z,16.13
2018-09-06T04:55:45.040Z,16.33
2018-09-06T04:58:13.932Z,16.40
2018-09-06T05:00:43.039Z,16.47
2018-09-06T05:03:11.702Z,16.07
2018-09-06T05:05:40.451Z,15.57
2018-09-06T05:08:10.031Z,14.70
2018-09-06T05:10:39.011Z,15.17
2018-09-06T05:13:08.116Z,15.97
2018-09-06T05:15:37.966Z,14.97
2018-09-06T05:18:07.186Z,16.30
2018-09-06T05:20:36.628Z,16.80
2018-09-06T05:23:06.021Z,15.10
2018-09-06T05:25:35.215Z,16.93
2018-09-06T05:28:04.142Z,15.53
2018-09-06T05:30:33.147Z,15.57
2018-09-06T05:33:01.919Z,15.07
2018-09-06T05:35:30.553Z,16.77
2018-09-06T05:37:59.991Z,16.30
2018-09-06T05:40:28.817Z,15.90
2018-09-06T05:42:57.536Z,15.57
2018-09-06T05:45:26.279Z,16.43
2018-09-06T05:47:57.906Z,16.00
2018-09-06T05:50:28.351Z,15.00
2018-09-06T05:52:57.765Z,15.10
2018-09-06T05:55:26.934Z,15.93
2018-09-06T05:57:55.839Z,14.83
2018-09-06T06:00:29.693Z,14.17
2018-09-06T06:03:00.596Z,15.30
2018-09-06T06:05:29.473Z,14.70
2018-09-06T06:08:09.576Z,14.57
2018-09-06T06:10:38.852Z,15.23
2018-09-06T06:13:07.840Z,15.27
2018-09-06T06:15:36.947Z,15.43
2018-09-06T06:18:06.242Z,14.77
2018-09-06T06:20:35.354Z,14.23
2018-09-06T06:23:04.303Z,14.77
2018-09-06T06:25:32.966Z,16.70
2018-09-06T06:28:01.762Z,14.40
2018-09-06T06:30:30.567Z,15.03
2018-09-06T06:32:59.651Z,14.77
2018-09-06T06:35:28.398Z,15.23
2018-09-06T06:37:57.241Z,14.97
2018-09-06T06:40:26.356Z,14.80
2018-09-06T06:42:55.436Z,15.20
2018-09-06T06:45:27.625Z,14.83
2018-09-06T06:47:56.907Z,14.10
2018-09-06T06:50:25.988Z,15.63
2018-09-06T06:52:55.126Z,15.73
2018-09-06T06:55:24.271Z,12.47
2018-09-06T06:57:53.130Z,15.27
2018-09-06T07:00:22.723Z,14.30
2018-09-06T07:02:52.203Z,14.30
2018-09-06T07:05:20.871Z,14.33
2018-09-06T07:07:50.517Z,14.43
2018-09-06T07:10:19.379Z,15.57
2018-09-06T07:12:48.410Z,13.80
2018-09-06T07:15:17.699Z,14.73
2018-09-06T07:17:46.459Z,14.93
2018-09-06T07:20:15.405Z,14.93
2018-09-06T07:22:44.307Z,13.57
2018-09-06T07:25:13.185Z,14.30
2018-09-06T07:27:42.102Z,13.83
2018-09-06T07:30:10.895Z,12.90
2018-09-06T07:32:39.642Z,12.63
2018-09-06T07:35:08.799Z,13.07
2018-09-06T07:37:38.138Z,13.33
2018-09-06T07:40:07.076Z,13.20
2018-09-06T07:42:35.897Z,12.10
2018-09-06T07:45:05.627Z,12.63
2018-09-06T07:47:34.819Z,13.67
2018-09-06T07:50:03.727Z,12.53
2018-09-06T07:52:33.231Z,13.73
2018-09-06T07:55:02.305Z,11.07
2018-09-06T07:57:31.503Z,11.73
2018-09-06T08:00:00.336Z,10.93
2018-09-06T08:02:29.148Z,12.17
2018-09-06T08:04:57.927Z,11.30
2018-09-06T08:07:27.393Z,11.00
2018-09-06T08:09:56.126Z,10.93
2018-09-06T08:12:25.071Z,10.73
2018-09-06T08:14:54.383Z,9.70
2018-09-06T08:17:23.358Z,10.07
2018-09-06T08:19:52.039Z,10.93
2018-09-06T08:22:21.309Z,10.93
2018-09-06T08:24:50.215Z,11.40
2018-09-06T08:27:19.259Z,10.43
2018-09-06T08:29:48.343Z,10.23
2018-09-06T08:32:17.129Z,10.07
2018-09-06T08:34:46.260Z,9.87
2018-09-06T08:37:15.572Z,9.40
2018-09-06T08:39:44.436Z,10.47
2018-09-06T08:42:13.494Z,10.07
2018-09-06T08:44:42.806Z,10.17
2018-09-06T08:47:11.697Z,9.47
2018-09-06T08:49:40.523Z,9.93
2018-09-06T08:52:09.677Z,10.40
2018-09-06T08:54:38.508Z,10.77
2018-09-06T08:57:07.449Z,8.97
2018-09-06T08:59:36.575Z,9.20
2018-09-06T09:02:09.500Z,9.57
2018-09-06T09:04:38.971Z,10.37
2018-09-06T09:07:08.045Z,9.53
2018-09-06T09:09:36.927Z,8.47
2018-09-06T09:12:06.264Z,9.47
2018-09-06T09:14:35.417Z,8.60
2018-09-06T09:17:04.519Z,8.53
2018-09-06T09:19:33.835Z,8.53
2018-09-06T09:22:02.719Z,8.27
2018-09-06T09:24:31.539Z,9.43
2018-09-06T09:27:00.699Z,8.87
2018-09-06T09:29:29.388Z,9.53
2018-09-06T09:31:58.506Z,9.30
2018-09-06T09:34:27.722Z,9.77
2018-09-06T09:36:56.855Z,8.37
2018-09-06T09:39:25.984Z,9.37
2018-09-06T09:41:55.263Z,8.73
2018-09-06T09:44:24.460Z,7.87
2018-09-06T09:49:22.026Z,9.13
2018-09-06T09:51:50.914Z,8.83
2018-09-06T09:54:19.854Z,8.77
2018-09-06T09:56:49.102Z,9.33
2018-09-06T09:59:17.716Z,8.37
2018-09-06T10:01:51.715Z,8.87
2018-09-06T10:04:25.853Z,8.87
2018-09-06T10:07:00.361Z,8.87
2018-09-06T10:09:29.380Z,10.27
2018-09-06T10:11:58.659Z,9.27
2018-09-06T10:14:28.064Z,8.30
2018-09-06T10:16:57.591Z,8.60
2018-09-06T10:19:26.856Z,8.50
2018-09-06T10:21:56.210Z,7.70
2018-09-06T10:24:25.089Z,8.50
2018-09-06T10:26:53.843Z,8.30
2018-09-06T10:29:23.255Z,8.63
2018-09-06T10:31:52.423Z,8.25
2018-09-06T10:34:21.391Z,8.58
2018-09-06T10:36:50.584Z,8.20
2018-09-06T10:39:19.817Z,9.25
2018-09-06T10:41:48.763Z,8.03
2018-09-06T10:44:18.290Z,9.03
2018-09-06T10:46:47.264Z,7.97
2018-09-06T10:49:16.263Z,8.13
2018-09-06T10:51:45.458Z,8.83
2018-09-06T10:54:14.648Z,8.85
2018-09-06T10:56:43.480Z,8.38
2018-09-06T10:59:12.362Z,7.70
2018-09-06T11:01:41.306Z,8.63
2018-09-06T11:04:10.329Z,7.58
2018-09-06T11:06:39.673Z,9.60
2018-09-06T11:09:08.610Z,8.13
2018-09-06T11:11:37.231Z,8.98
2018-09-06T11:14:07.161Z,8.15
2018-09-06T11:16:36.138Z,8.00
2018-09-06T11:19:05.763Z,8.45
2018-09-06T11:21:35.239Z,8.25
2018-09-06T11:24:03.791Z,8.48
2018-09-06T11:26:32.571Z,8.38
2018-09-06T11:29:01.634Z,8.13
2018-09-06T11:31:30.428Z,8.30
2018-09-06T11:33:59.104Z,8.03
2018-09-06T11:36:28.630Z,7.50
2018-09-06T11:38:57.491Z,8.38
2018-09-06T11:41:26.250Z,7.83
2018-09-06T11:43:55.569Z,7.97
2018-09-06T11:46:24.388Z,7.53
2018-09-06T11:48:53.448Z,8.05
2018-09-06T11:51:22.879Z,8.88
2018-09-06T11:53:51.793Z,8.03
2018-09-06T11:56:20.457Z,8.08
2018-09-06T11:58:49.478Z,8.03
2018-09-06T12:01:18.582Z,7.45
2018-09-06T12:03:47.749Z,7.10
2018-09-06T12:06:17.311Z,7.47
2018-09-06T12:08:46.426Z,7.55
2018-09-06T12:11:15.506Z,7.92
2018-09-06T12:13:44.926Z,9.05
2018-09-06T12:16:13.716Z,8.53
2018-09-06T12:18:42.719Z,7.95
2018-09-06T12:21:12.126Z,7.83
2018-09-06T12:23:40.981Z,10.58
2018-09-06T12:26:09.770Z,10.43
2018-09-06T12:28:38.839Z,8.98
2018-09-06T12:31:08.066Z,8.35
2018-09-06T12:33:38.018Z,8.53
2018-09-06T12:36:07.411Z,8.48
2018-09-06T12:38:36.629Z,8.85
2018-09-06T12:41:05.698Z,7.37
2018-09-06T12:43:35.050Z,7.92
2018-09-06T12:46:04.207Z,8.90
2018-09-06T12:48:33.833Z,7.55
2018-09-06T12:51:02.914Z,8.05
2018-09-06T12:53:32.221Z,7.95
2018-09-06T12:56:00.915Z,8.70
2018-09-06T12:58:30.088Z,8.58
2018-09-06T13:00:59.096Z,8.63
2018-09-06T13:03:27.958Z,10.08
2018-09-06T13:05:57.309Z,8.63
2018-09-06T13:08:26.358Z,7.95
2018-09-06T13:10:55.253Z,7.95
2018-09-06T13:13:24.687Z,8.48
2018-09-06T13:15:53.371Z,7.85
2018-09-06T13:18:22.168Z,8.70
2018-09-06T13:20:51.650Z,8.20
2018-09-06T13:23:20.439Z,8.13
2018-09-06T13:25:49.299Z,8.43
2018-09-06T13:28:18.533Z,7.75
2018-09-06T13:30:47.386Z,8.18
2018-09-06T13:33:16.381Z,7.62
2018-09-06T13:35:45.684Z,9.03
2018-09-06T13:38:14.674Z,10.53
2018-09-06T13:40:43.814Z,10.38
2018-09-06T13:43:13.041Z,9.38
2018-09-06T13:45:42.219Z,9.25
2018-09-06T13:48:10.950Z,8.60
2018-09-06T13:50:40.142Z,7.45
2018-09-06T13:53:08.996Z,9.75
2018-09-06T13:55:37.797Z,7.30
2018-09-06T13:58:06.794Z,8.53
2018-09-06T14:00:35.568Z,7.95
2018-09-06T14:03:04.302Z,9.25
2018-09-06T14:05:33.734Z,8.28
2018-09-06T14:08:02.754Z,8.13
2018-09-06T14:10:31.578Z,9.90
2018-09-06T14:13:00.807Z,8.35
2018-09-06T14:15:30.059Z,16.27
2018-09-06T14:17:58.782Z,10.20
2018-09-06T14:20:28.367Z,8.83
2018-09-06T14:22:57.085Z,9.33
2018-09-06T14:25:25.762Z,11.25
2018-09-06T14:27:54.763Z,8.95
2018-09-06T14:30:23.828Z,9.08
2018-09-06T14:32:52.776Z,9.50
2018-09-06T14:35:21.675Z,8.30
2018-09-06T14:37:50.412Z,9.63
2018-09-06T14:40:19.348Z,10.13
2018-09-06T14:42:48.595Z,9.18
2018-09-06T14:45:17.722Z,8.78
2018-09-06T14:47:46.569Z,9.00
2018-09-06T14:50:15.667Z,8.43
2018-09-06T14:52:44.574Z,10.00
2018-09-06T14:55:13.237Z,9.63
2018-09-06T14:57:42.056Z,8.98
2018-09-06T15:00:10.893Z,9.90
2018-09-06T15:02:39.583Z,8.65
2018-09-06T15:05:08.630Z,9.23
2018-09-06T15:07:37.893Z,8.50
2018-09-06T15:10:07.304Z,10.18
2018-09-06T15:12:36.386Z,9.40
2018-09-06T15:15:05.471Z,9.53
2018-09-06T15:17:34.921Z,9.30
2018-09-06T15:20:04.006Z,10.13
2018-09-06T15:22:32.755Z,9.33
2018-09-06T15:25:01.446Z,10.15
2018-09-06T15:27:30.130Z,9.43
2018-09-06T15:29:59.230Z,8.90
2018-09-06T15:32:28.159Z,8.98
2018-09-06T15:34:56.934Z,11.08
2018-09-06T15:37:25.751Z,9.80
2018-09-06T15:39:54.466Z,12.10
2018-09-06T15:42:23.410Z,12.45
2018-09-06T15:44:52.023Z,11.70
2018-09-06T15:47:21.398Z,12.53
2018-09-06T15:49:50.093Z,12.45
2018-09-06T15:52:18.858Z,12.20
2018-09-06T15:54:47.929Z,12.30
2018-09-06T15:57:16.849Z,11.65
2018-09-06T15:59:45.870Z,11.53
2018-09-06T16:02:15.330Z,12.55
2018-09-06T16:04:44.144Z,12.93
2018-09-06T16:07:13.328Z,13.03
2018-09-06T16:09:42.590Z,12.20
2018-09-06T16:12:11.545Z,13.35
2018-09-06T16:14:40.538Z,13.28
2018-09-06T16:17:09.755Z,13.50
2018-09-06T16:19:38.836Z,13.18
2018-09-06T16:22:07.621Z,13.58
2018-09-06T16:24:36.752Z,14.07
2018-09-06T16:27:05.613Z,14.33
2018-09-06T16:29:34.601Z,14.55
2018-09-06T16:32:03.734Z,13.32
2018-09-06T16:34:32.467Z,13.20
2018-09-06T16:37:01.487Z,13.40
2018-09-06T16:39:30.412Z,14.47
2018-09-06T16:41:59.122Z,14.87
2018-09-06T16:44:28.163Z,13.10
2018-09-06T16:46:57.100Z,15.40
2018-09-06T16:49:26.268Z,14.13
2018-09-06T16:51:55.078Z,14.50
2018-09-06T16:54:24.111Z,14.67
2018-09-06T16:56:52.783Z,14.63
2018-09-06T16:59:21.635Z,15.53
2018-09-06T17:01:50.822Z,14.73
2018-09-06T17:04:19.891Z,17.97
2018-09-06T17:06:48.799Z,17.57
2018-09-06T17:09:17.921Z,18.47
2018-09-06T17:11:46.732Z,18.50
2018-09-06T17:14:15.676Z,19.10
2018-09-06T17:16:44.419Z,18.57
2018-09-06T17:19:13.516Z,20.37
2018-09-06T17:21:42.196Z,21.33
2018-09-06T17:24:10.896Z,17.07
2018-09-06T17:26:39.695Z,17.37
2018-09-06T17:29:08.627Z,16.27
2018-09-06T17:31:37.406Z,16.57
2018-09-06T17:34:06.547Z,15.87
2018-09-06T17:36:35.599Z,17.53
2018-09-06T17:39:06.511Z,17.07
2018-09-06T17:41:35.607Z,16.70
2018-09-06T17:44:04.466Z,16.73
2018-09-06T17:46:33.265Z,18.33
2018-09-06T17:49:02.455Z,17.87
2018-09-06T17:51:31.150Z,16.87
2018-09-06T17:53:59.942Z,17.47
2018-09-06T17:56:28.960Z,17.37
2018-09-06T17:58:58.170Z,17.70
2018-09-06T18:01:33.340Z,18.37
2018-09-06T18:04:02.472Z,17.67
2018-09-06T18:06:31.516Z,18.17
2018-09-06T18:09:00.738Z,19.00
2018-09-06T18:11:30.170Z,19.03
2018-09-06T18:13:59.517Z,17.60
2018-09-06T18:16:28.718Z,17.00
2018-09-06T18:18:57.766Z,18.70
2018-09-06T18:21:27.222Z,18.27
2018-09-06T18:23:57.043Z,19.20
2018-09-06T18:26:26.135Z,19.33
2018-09-06T18:28:55.124Z,19.00
2018-09-06T18:31:24.502Z,17.07
2018-09-06T18:33:53.218Z,19.27
2018-09-06T18:36:22.606Z,16.70
2018-09-06T18:38:52.584Z,17.70
2018-09-06T18:41:21.437Z,17.30
2018-09-06T18:43:50.657Z,17.60
2018-09-06T18:46:20.154Z,18.10
2018-09-06T18:48:49.088Z,17.93
2018-09-06T18:51:17.891Z,17.37
2018-09-06T18:53:46.887Z,17.73
2018-09-06T18:56:15.708Z,17.80
2018-09-06T18:58:44.647Z,16.67
2018-09-06T19:01:14.004Z,18.27
2018-09-06T19:03:42.821Z,18.33
2018-09-06T19:06:11.957Z,17.97
2018-09-06T19:08:41.384Z,16.60
2018-09-06T19:11:10.468Z,18.63
2018-09-06T19:13:39.281Z,18.13
2018-09-06T19:16:08.614Z,19.37
2018-09-06T19:18:37.745Z,17.60
2018-09-06T19:21:06.878Z,17.70
2018-09-06T19:23:35.937Z,16.77
2018-09-06T19:26:04.666Z,16.87
2018-09-06T19:28:33.767Z,19.53
2018-09-06T19:31:03.280Z,18.47
2018-09-06T19:33:32.427Z,15.53
2018-09-06T19:36:01.462Z,18.77
2018-09-06T19:38:30.989Z,17.83
2018-09-06T19:40:59.946Z,16.60
2018-09-06T19:43:28.942Z,16.60
2018-09-06T19:45:58.488Z,17.13
2018-09-06T19:48:27.339Z,16.97
2018-09-06T19:50:56.461Z,16.67
2018-09-06T19:53:25.418Z,17.13
2018-09-06T19:55:54.168Z,17.50
2018-09-06T19:58:22.924Z,16.40
2018-09-06T20:00:52.202Z,16.70
2018-09-06T20:03:21.242Z,17.27
2018-09-06T20:05:50.422Z,17.40
2018-09-06T20:08:19.861Z,16.67
2018-09-06T20:10:48.708Z,16.83
2018-09-06T20:13:17.796Z,17.10
2018-09-06T20:15:47.119Z,17.97
2018-09-06T20:18:15.980Z,17.40
2018-09-06T20:20:44.720Z,17.30
2018-09-06T20:23:13.533Z,17.10
2018-09-06T20:25:42.348Z,17.00
2018-09-06T20:28:11.378Z,16.57
2018-09-06T20:30:40.074Z,18.30
2018-09-06T20:33:09.179Z,17.33
2018-09-06T20:35:38.134Z,18.17
2018-09-06T20:38:07.650Z,17.67
2018-09-06T20:40:37.630Z,16.93
2018-09-06T20:43:06.865Z,17.67
2018-09-06T20:45:35.908Z,17.27
2018-09-06T20:48:05.024Z,17.07
2018-09-06T20:50:33.777Z,16.83
2018-09-06T20:53:02.784Z,17.83
2018-09-06T20:55:31.461Z,17.07
2018-09-06T20:58:00.301Z,16.13
2018-09-06T21:00:29.523Z,17.37
2018-09-06T21:02:58.401Z,17.40
2018-09-06T21:05:27.701Z,16.00
2018-09-06T21:07:57.006Z,16.90
2018-09-06T21:10:26.035Z,16.77
2018-09-06T21:12:54.995Z,16.07
2018-09-06T21:15:24.303Z,16.97
2018-09-06T21:17:55.604Z,16.67
2018-09-06T21:20:24.550Z,16.63
2018-09-06T21:22:53.238Z,15.20
2018-09-06T21:25:22.036Z,15.73
2018-09-06T21:27:51.214Z,14.87
2018-09-06T21:30:20.179Z,15.83
2018-09-06T21:32:49.085Z,16.33
2018-09-06T21:35:23.764Z,16.07
2018-09-06T21:37:52.934Z,16.27
2018-09-06T21:40:22.098Z,16.73
2018-09-06T21:42:51.223Z,15.70
2018-09-06T21:45:20.272Z,16.13
2018-09-06T21:47:49.221Z,15.63
2018-09-06T21:50:18.221Z,16.23
2018-09-06T21:52:46.923Z,14.73
2018-09-06T21:55:15.852Z,15.70
2018-09-06T21:57:45.192Z,16.03
2018-09-06T22:00:14.182Z,16.53
2018-09-06T22:02:48.396Z,15.33
2018-09-06T22:05:17.507Z,16.33
2018-09-06T22:07:46.758Z,16.63
2018-09-06T22:10:15.672Z,15.93
2018-09-06T22:12:44.603Z,16.60
2018-09-06T22:15:13.670Z,15.77
2018-09-06T22:17:42.848Z,16.93
2018-09-06T22:20:11.539Z,16.40
2018-09-06T22:22:40.303Z,16.13
2018-09-06T22:25:09.375Z,14.77
2018-09-06T22:27:38.323Z,15.73
2018-09-06T22:30:07.329Z,14.47
2018-09-06T22:32:36.899Z,15.43
2018-09-06T22:35:05.784Z,15.37
2018-09-06T22:37:34.679Z,16.03
2018-09-06T22:40:03.946Z,15.37
2018-09-06T22:42:32.942Z,16.10
2018-09-06T22:45:01.744Z,16.83
2018-09-06T22:47:30.709Z,15.03
2018-09-06T22:49:59.755Z,15.37
2018-09-06T22:52:28.631Z,14.93
2018-09-06T22:54:57.802Z,15.50
2018-09-06T22:57:26.664Z,16.23
2018-09-06T22:59:55.759Z,15.17
2018-09-06T23:02:29.217Z,15.93
2018-09-06T23:04:58.467Z,15.73
2018-09-06T23:07:27.765Z,16.40
2018-09-06T23:09:56.595Z,16.27
2018-09-06T23:12:25.490Z,16.67
2018-09-06T23:14:54.440Z,15.97
2018-09-06T23:17:23.513Z,16.57
2018-09-06T23:19:52.323Z,15.50
2018-09-06T23:22:21.294Z,16.67
2018-09-06T23:24:50.000Z,18.07
2018-09-06T23:27:18.727Z,16.00
2018-09-06T23:29:48.060Z,15.97
2018-09-06T23:32:17.123Z,16.03
2018-09-06T23:34:45.991Z,16.17
2018-09-06T23:37:15.305Z,16.90
2018-09-06T23:39:44.065Z,16.00
2018-09-06T23:42:13.076Z,16.50
2018-09-06T23:44:42.261Z,16.40
2018-09-06T23:47:11.371Z,16.27
2018-09-06T23:49:40.459Z,16.50
2018-09-06T23:52:09.606Z,18.13
2018-09-06T23:54:38.374Z,17.60
2018-09-06T23:57:07.134Z,17.50
2018-09-06T23:59:35.867Z,16.90
